sensor_id;sensor_type;location;lat;lon;timestamp;P1;durP1;ratioP1;P2;durP2;ratioP2
74170;SDS011;62526;50.948;6.590;2023-07-24T00:00:50;6.22;;;2.90;;
74170;SDS011;62526;50.948;6.590;2023-07-24T00:03:16;4.03;;;2.80;;
74170;SDS011;62526;50.948;6.590;2023-07-24T00:05:43;7.62;;;2.97;;
74170;SDS011;62526;50.948;6.590;2023-07-24T00:08:10;4.95;;;2.97;;
74170;SDS011;62526;50.948;6.590;2023-07-24T00:10:37;6.32;;;2.87;;
74170;SDS011;62526;50.948;6.590;2023-07-24T00:13:04;5.62;;;3.50;;
74170;SDS011;62526;50.948;6.590;2023-07-24T00:15:30;4.15;;;3.03;;
74170;SDS011;62526;50.948;6.590;2023-07-24T00:17:57;4.03;;;3.25;;
74170;SDS011;62526;50.948;6.590;2023-07-24T00:20:24;6.87;;;3.45;;
74170;SDS011;62526;50.948;6.590;2023-07-24T00:22:50;5.65;;;2.97;;
74170;SDS011;62526;50.948;6.590;2023-07-24T00:25:18;6.20;;;3.50;;
74170;SDS011;62526;50.948;6.590;2023-07-24T00:27:44;5.70;;;3.72;;
74170;SDS011;62526;50.948;6.590;2023-07-24T00:30:11;6.60;;;3.35;;
74170;SDS011;62526;50.948;6.590;2023-07-24T00:32:38;8.68;;;3.47;;
74170;SDS011;62526;50.948;6.590;2023-07-24T00:35:04;4.90;;;3.60;;
74170;SDS011;62526;50.948;6.590;2023-07-24T00:37:32;5.65;;;3.22;;
74170;SDS011;62526;50.948;6.590;2023-07-24T00:40:00;3.85;;;3.10;;
74170;SDS011;62526;50.948;6.590;2023-07-24T00:42:26;7.28;;;4.28;;
74170;SDS011;62526;50.948;6.590;2023-07-24T00:44:53;11.75;;;3.87;;
74170;SDS011;62526;50.948;6.590;2023-07-24T00:47:20;6.68;;;3.40;;
74170;SDS011;62526;50.948;6.590;2023-07-24T00:49:46;10.40;;;3.65;;
74170;SDS011;62526;50.948;6.590;2023-07-24T00:52:13;5.28;;;3.58;;
74170;SDS011;62526;50.948;6.590;2023-07-24T00:54:40;9.35;;;3.40;;
74170;SDS011;62526;50.948;6.590;2023-07-24T00:57:06;6.30;;;3.90;;
74170;SDS011;62526;50.948;6.590;2023-07-24T00:59:33;4.95;;;3.37;;
74170;SDS011;62526;50.948;6.590;2023-07-24T01:02:00;7.97;;;3.97;;
74170;SDS011;62526;50.948;6.590;2023-07-24T01:04:27;6.25;;;3.42;;
74170;SDS011;62526;50.948;6.590;2023-07-24T01:06:54;6.68;;;3.47;;
74170;SDS011;62526;50.948;6.590;2023-07-24T01:09:20;7.37;;;3.55;;
74170;SDS011;62526;50.948;6.590;2023-07-24T01:11:47;7.80;;;3.53;;
74170;SDS011;62526;50.948;6.590;2023-07-24T01:14:19;4.03;;;3.45;;
74170;SDS011;62526;50.948;6.590;2023-07-24T01:16:46;7.12;;;3.83;;
74170;SDS011;62526;50.948;6.590;2023-07-24T01:19:33;8.18;;;3.92;;
74170;SDS011;62526;50.948;6.590;2023-07-24T01:24:46;6.10;;;3.87;;
74170;SDS011;62526;50.948;6.590;2023-07-24T01:27:24;7.62;;;4.20;;
74170;SDS011;62526;50.948;6.590;2023-07-24T01:29:51;9.23;;;4.18;;
74170;SDS011;62526;50.948;6.590;2023-07-24T01:32:19;6.40;;;4.22;;
74170;SDS011;62526;50.948;6.590;2023-07-24T01:34:45;6.18;;;4.10;;
74170;SDS011;62526;50.948;6.590;2023-07-24T01:37:12;6.07;;;3.58;;
74170;SDS011;62526;50.948;6.590;2023-07-24T01:39:40;7.07;;;3.95;;
74170;SDS011;62526;50.948;6.590;2023-07-24T01:42:07;6.20;;;4.30;;
74170;SDS011;62526;50.948;6.590;2023-07-24T01:44:34;6.93;;;3.87;;
74170;SDS011;62526;50.948;6.590;2023-07-24T01:47:00;6.60;;;4.20;;
74170;SDS011;62526;50.948;6.590;2023-07-24T01:49:27;7.03;;;4.43;;
74170;SDS011;62526;50.948;6.590;2023-07-24T01:51:54;6.45;;;4.55;;
74170;SDS011;62526;50.948;6.590;2023-07-24T01:54:20;5.62;;;3.55;;
74170;SDS011;62526;50.948;6.590;2023-07-24T01:56:47;7.53;;;3.62;;
74170;SDS011;62526;50.948;6.590;2023-07-24T01:59:14;8.10;;;4.20;;
74170;SDS011;62526;50.948;6.590;2023-07-24T02:01:41;4.75;;;3.72;;
74170;SDS011;62526;50.948;6.590;2023-07-24T02:04:08;8.70;;;4.05;;
74170;SDS011;62526;50.948;6.590;2023-07-24T02:06:34;7.28;;;4.12;;
74170;SDS011;62526;50.948;6.590;2023-07-24T02:09:01;7.25;;;4.30;;
74170;SDS011;62526;50.948;6.590;2023-07-24T02:11:28;5.82;;;3.95;;
74170;SDS011;62526;50.948;6.590;2023-07-24T02:13:54;7.53;;;4.10;;
74170;SDS011;62526;50.948;6.590;2023-07-24T02:16:22;6.45;;;4.03;;
74170;SDS011;62526;50.948;6.590;2023-07-24T02:18:49;9.20;;;4.05;;
74170;SDS011;62526;50.948;6.590;2023-07-24T02:21:15;9.75;;;3.95;;
74170;SDS011;62526;50.948;6.590;2023-07-24T02:23:42;10.73;;;4.80;;
74170;SDS011;62526;50.948;6.590;2023-07-24T02:26:08;7.90;;;4.28;;
74170;SDS011;62526;50.948;6.590;2023-07-24T02:28:35;12.27;;;4.55;;
74170;SDS011;62526;50.948;6.590;2023-07-24T02:31:01;8.05;;;4.22;;
74170;SDS011;62526;50.948;6.590;2023-07-24T02:33:28;10.65;;;5.03;;
74170;SDS011;62526;50.948;6.590;2023-07-24T02:35:55;9.27;;;4.22;;
74170;SDS011;62526;50.948;6.590;2023-07-24T02:38:21;11.15;;;4.32;;
74170;SDS011;62526;50.948;6.590;2023-07-24T02:40:48;11.23;;;4.55;;
74170;SDS011;62526;50.948;6.590;2023-07-24T02:43:15;10.68;;;4.55;;
74170;SDS011;62526;50.948;6.590;2023-07-24T02:45:42;6.85;;;4.37;;
74170;SDS011;62526;50.948;6.590;2023-07-24T02:48:09;10.10;;;4.47;;
74170;SDS011;62526;50.948;6.590;2023-07-24T02:50:35;6.20;;;4.53;;
74170;SDS011;62526;50.948;6.590;2023-07-24T02:53:03;10.15;;;4.30;;
74170;SDS011;62526;50.948;6.590;2023-07-24T02:55:30;5.80;;;4.10;;
74170;SDS011;62526;50.948;6.590;2023-07-24T02:57:57;6.93;;;4.03;;
74170;SDS011;62526;50.948;6.590;2023-07-24T03:00:24;12.75;;;4.90;;
74170;SDS011;62526;50.948;6.590;2023-07-24T03:02:51;11.10;;;4.25;;
74170;SDS011;62526;50.948;6.590;2023-07-24T03:05:17;8.65;;;4.70;;
74170;SDS011;62526;50.948;6.590;2023-07-24T03:07:44;9.20;;;4.70;;
74170;SDS011;62526;50.948;6.590;2023-07-24T03:10:11;9.00;;;4.57;;
74170;SDS011;62526;50.948;6.590;2023-07-24T03:12:37;8.25;;;4.47;;
74170;SDS011;62526;50.948;6.590;2023-07-24T03:15:05;17.08;;;5.00;;
74170;SDS011;62526;50.948;6.590;2023-07-24T03:17:32;9.50;;;4.55;;
74170;SDS011;62526;50.948;6.590;2023-07-24T03:19:59;8.52;;;4.32;;
74170;SDS011;62526;50.948;6.590;2023-07-24T03:22:26;7.50;;;4.28;;
74170;SDS011;62526;50.948;6.590;2023-07-24T03:24:53;9.88;;;4.82;;
74170;SDS011;62526;50.948;6.590;2023-07-24T03:27:19;9.45;;;4.85;;
74170;SDS011;62526;50.948;6.590;2023-07-24T03:29:46;7.70;;;4.35;;
74170;SDS011;62526;50.948;6.590;2023-07-24T03:32:13;9.00;;;4.72;;
74170;SDS011;62526;50.948;6.590;2023-07-24T03:34:39;8.05;;;4.53;;
74170;SDS011;62526;50.948;6.590;2023-07-24T03:37:06;10.75;;;4.97;;
74170;SDS011;62526;50.948;6.590;2023-07-24T03:39:33;11.25;;;4.82;;
74170;SDS011;62526;50.948;6.590;2023-07-24T03:41:59;9.05;;;5.12;;
74170;SDS011;62526;50.948;6.590;2023-07-24T03:44:26;12.40;;;4.93;;
74170;SDS011;62526;50.948;6.590;2023-07-24T03:46:52;9.48;;;4.65;;
74170;SDS011;62526;50.948;6.590;2023-07-24T03:49:19;7.80;;;4.87;;
74170;SDS011;62526;50.948;6.590;2023-07-24T03:51:46;8.65;;;4.85;;
74170;SDS011;62526;50.948;6.590;2023-07-24T03:54:13;10.52;;;4.62;;
74170;SDS011;62526;50.948;6.590;2023-07-24T03:56:39;10.25;;;5.30;;
74170;SDS011;62526;50.948;6.590;2023-07-24T03:59:06;9.68;;;5.32;;
74170;SDS011;62526;50.948;6.590;2023-07-24T04:01:32;10.38;;;5.12;;
74170;SDS011;62526;50.948;6.590;2023-07-24T04:03:59;9.32;;;4.95;;
74170;SDS011;62526;50.948;6.590;2023-07-24T04:06:26;9.07;;;4.18;;
74170;SDS011;62526;50.948;6.590;2023-07-24T04:08:53;6.35;;;4.62;;
74170;SDS011;62526;50.948;6.590;2023-07-24T04:11:19;9.10;;;4.68;;
74170;SDS011;62526;50.948;6.590;2023-07-24T04:13:46;9.68;;;4.60;;
74170;SDS011;62526;50.948;6.590;2023-07-24T04:16:13;9.95;;;4.78;;
74170;SDS011;62526;50.948;6.590;2023-07-24T04:18:39;7.35;;;4.80;;
74170;SDS011;62526;50.948;6.590;2023-07-24T04:21:06;8.23;;;4.95;;
74170;SDS011;62526;50.948;6.590;2023-07-24T04:23:33;8.52;;;5.00;;
74170;SDS011;62526;50.948;6.590;2023-07-24T04:25:59;6.65;;;5.03;;
74170;SDS011;62526;50.948;6.590;2023-07-24T04:28:27;9.63;;;4.50;;
74170;SDS011;62526;50.948;6.590;2023-07-24T04:30:53;8.90;;;4.70;;
74170;SDS011;62526;50.948;6.590;2023-07-24T04:33:21;9.82;;;4.68;;
74170;SDS011;62526;50.948;6.590;2023-07-24T04:35:48;11.52;;;4.53;;
74170;SDS011;62526;50.948;6.590;2023-07-24T04:38:14;14.23;;;4.60;;
74170;SDS011;62526;50.948;6.590;2023-07-24T04:40:43;10.68;;;4.70;;
74170;SDS011;62526;50.948;6.590;2023-07-24T04:43:07;7.35;;;4.82;;
74170;SDS011;62526;50.948;6.590;2023-07-24T04:45:35;5.22;;;4.18;;
74170;SDS011;62526;50.948;6.590;2023-07-24T04:48:02;8.32;;;5.00;;
74170;SDS011;62526;50.948;6.590;2023-07-24T04:50:29;13.38;;;4.87;;
74170;SDS011;62526;50.948;6.590;2023-07-24T04:52:55;8.80;;;5.18;;
74170;SDS011;62526;50.948;6.590;2023-07-24T04:55:22;9.15;;;4.97;;
74170;SDS011;62526;50.948;6.590;2023-07-24T04:57:49;5.90;;;4.28;;
74170;SDS011;62526;50.948;6.590;2023-07-24T05:00:16;6.60;;;5.00;;
74170;SDS011;62526;50.948;6.590;2023-07-24T05:02:43;6.78;;;4.32;;
74170;SDS011;62526;50.948;6.590;2023-07-24T05:05:10;11.68;;;4.60;;
74170;SDS011;62526;50.948;6.590;2023-07-24T05:07:36;12.70;;;5.03;;
74170;SDS011;62526;50.948;6.590;2023-07-24T05:10:03;8.57;;;4.50;;
74170;SDS011;62526;50.948;6.590;2023-07-24T05:12:30;11.07;;;4.65;;
74170;SDS011;62526;50.948;6.590;2023-07-24T05:14:57;7.00;;;4.53;;
74170;SDS011;62526;50.948;6.590;2023-07-24T05:17:23;8.88;;;4.78;;
74170;SDS011;62526;50.948;6.590;2023-07-24T05:19:51;6.82;;;4.65;;
74170;SDS011;62526;50.948;6.590;2023-07-24T05:22:17;7.05;;;4.60;;
74170;SDS011;62526;50.948;6.590;2023-07-24T05:24:45;8.50;;;3.80;;
74170;SDS011;62526;50.948;6.590;2023-07-24T05:27:12;5.20;;;4.05;;
74170;SDS011;62526;50.948;6.590;2023-07-24T05:29:39;7.05;;;3.92;;
74170;SDS011;62526;50.948;6.590;2023-07-24T05:32:06;8.18;;;4.82;;
74170;SDS011;62526;50.948;6.590;2023-07-24T05:34:33;6.78;;;4.53;;
74170;SDS011;62526;50.948;6.590;2023-07-24T05:37:00;5.85;;;4.03;;
74170;SDS011;62526;50.948;6.590;2023-07-24T05:39:27;7.10;;;3.97;;
74170;SDS011;62526;50.948;6.590;2023-07-24T05:41:53;6.65;;;3.95;;
74170;SDS011;62526;50.948;6.590;2023-07-24T05:44:23;5.62;;;3.85;;
74170;SDS011;62526;50.948;6.590;2023-07-24T05:46:51;7.65;;;4.05;;
74170;SDS011;62526;50.948;6.590;2023-07-24T05:49:18;6.57;;;3.47;;
74170;SDS011;62526;50.948;6.590;2023-07-24T05:51:44;4.80;;;3.40;;
74170;SDS011;62526;50.948;6.590;2023-07-24T05:54:11;4.82;;;3.40;;
74170;SDS011;62526;50.948;6.590;2023-07-24T05:56:38;7.65;;;5.12;;
74170;SDS011;62526;50.948;6.590;2023-07-24T05:59:04;6.90;;;4.15;;
74170;SDS011;62526;50.948;6.590;2023-07-24T06:01:31;5.87;;;3.55;;
74170;SDS011;62526;50.948;6.590;2023-07-24T06:03:58;5.35;;;3.03;;
74170;SDS011;62526;50.948;6.590;2023-07-24T06:06:25;7.12;;;3.78;;
74170;SDS011;62526;50.948;6.590;2023-07-24T06:08:52;7.03;;;3.55;;
74170;SDS011;62526;50.948;6.590;2023-07-24T06:11:19;7.00;;;3.95;;
74170;SDS011;62526;50.948;6.590;2023-07-24T06:13:45;6.68;;;3.55;;
74170;SDS011;62526;50.948;6.590;2023-07-24T06:16:12;9.20;;;3.62;;
74170;SDS011;62526;50.948;6.590;2023-07-24T06:18:39;7.40;;;3.62;;
74170;SDS011;62526;50.948;6.590;2023-07-24T06:21:06;5.57;;;2.87;;
74170;SDS011;62526;50.948;6.590;2023-07-24T06:23:33;4.85;;;3.45;;
74170;SDS011;62526;50.948;6.590;2023-07-24T06:25:59;5.95;;;3.10;;
74170;SDS011;62526;50.948;6.590;2023-07-24T06:28:26;4.70;;;2.90;;
74170;SDS011;62526;50.948;6.590;2023-07-24T06:30:52;8.68;;;3.20;;
74170;SDS011;62526;50.948;6.590;2023-07-24T06:33:19;5.53;;;3.22;;
74170;SDS011;62526;50.948;6.590;2023-07-24T06:35:46;7.10;;;3.67;;
74170;SDS011;62526;50.948;6.590;2023-07-24T06:38:12;6.60;;;3.72;;
74170;SDS011;62526;50.948;6.590;2023-07-24T06:40:40;5.78;;;3.30;;
74170;SDS011;62526;50.948;6.590;2023-07-24T06:43:06;4.80;;;2.92;;
74170;SDS011;62526;50.948;6.590;2023-07-24T06:45:32;5.35;;;3.40;;
74170;SDS011;62526;50.948;6.590;2023-07-24T06:47:59;5.47;;;3.65;;
74170;SDS011;62526;50.948;6.590;2023-07-24T06:50:26;11.18;;;3.47;;
74170;SDS011;62526;50.948;6.590;2023-07-24T06:52:52;4.78;;;3.20;;
74170;SDS011;62526;50.948;6.590;2023-07-24T06:55:19;7.12;;;3.00;;
74170;SDS011;62526;50.948;6.590;2023-07-24T06:57:46;5.22;;;2.92;;
74170;SDS011;62526;50.948;6.590;2023-07-24T07:00:13;5.43;;;3.42;;
74170;SDS011;62526;50.948;6.590;2023-07-24T07:02:40;3.97;;;2.90;;
74170;SDS011;62526;50.948;6.590;2023-07-24T07:05:06;5.78;;;3.28;;
74170;SDS011;62526;50.948;6.590;2023-07-24T07:07:33;3.87;;;3.33;;
74170;SDS011;62526;50.948;6.590;2023-07-24T07:10:00;6.37;;;3.00;;
74170;SDS011;62526;50.948;6.590;2023-07-24T07:12:26;4.18;;;2.85;;
74170;SDS011;62526;50.948;6.590;2023-07-24T07:14:53;5.35;;;2.92;;
74170;SDS011;62526;50.948;6.590;2023-07-24T07:17:20;5.62;;;3.10;;
74170;SDS011;62526;50.948;6.590;2023-07-24T07:19:46;5.53;;;2.78;;
74170;SDS011;62526;50.948;6.590;2023-07-24T07:22:13;4.90;;;3.12;;
74170;SDS011;62526;50.948;6.590;2023-07-24T07:24:39;7.53;;;3.00;;
74170;SDS011;62526;50.948;6.590;2023-07-24T07:27:06;3.83;;;2.55;;
74170;SDS011;62526;50.948;6.590;2023-07-24T07:29:33;3.62;;;2.47;;
74170;SDS011;62526;50.948;6.590;2023-07-24T07:31:59;6.10;;;3.12;;
74170;SDS011;62526;50.948;6.590;2023-07-24T07:34:26;5.22;;;2.75;;
74170;SDS011;62526;50.948;6.590;2023-07-24T07:36:53;4.22;;;2.92;;
74170;SDS011;62526;50.948;6.590;2023-07-24T07:39:19;4.85;;;3.62;;
74170;SDS011;62526;50.948;6.590;2023-07-24T07:41:46;5.35;;;2.72;;
74170;SDS011;62526;50.948;6.590;2023-07-24T07:44:13;4.82;;;3.83;;
74170;SDS011;62526;50.948;6.590;2023-07-24T07:46:40;5.37;;;3.80;;
74170;SDS011;62526;50.948;6.590;2023-07-24T07:49:06;8.27;;;4.05;;
74170;SDS011;62526;50.948;6.590;2023-07-24T07:51:33;5.10;;;3.20;;
74170;SDS011;62526;50.948;6.590;2023-07-24T07:53:59;6.80;;;3.70;;
74170;SDS011;62526;50.948;6.590;2023-07-24T07:56:26;4.53;;;3.58;;
74170;SDS011;62526;50.948;6.590;2023-07-24T07:58:53;6.10;;;3.58;;
74170;SDS011;62526;50.948;6.590;2023-07-24T08:01:19;7.68;;;3.90;;
74170;SDS011;62526;50.948;6.590;2023-07-24T08:03:46;3.45;;;2.90;;
74170;SDS011;62526;50.948;6.590;2023-07-24T08:06:13;5.78;;;3.28;;
74170;SDS011;62526;50.948;6.590;2023-07-24T08:08:39;5.45;;;3.37;;
74170;SDS011;62526;50.948;6.590;2023-07-24T08:11:06;5.22;;;3.00;;
74170;SDS011;62526;50.948;6.590;2023-07-24T08:13:33;4.12;;;3.35;;
74170;SDS011;62526;50.948;6.590;2023-07-24T08:16:00;8.20;;;3.75;;
74170;SDS011;62526;50.948;6.590;2023-07-24T08:18:26;4.50;;;2.90;;
74170;SDS011;62526;50.948;6.590;2023-07-24T08:20:53;5.72;;;3.67;;
74170;SDS011;62526;50.948;6.590;2023-07-24T08:23:20;4.37;;;2.97;;
74170;SDS011;62526;50.948;6.590;2023-07-24T08:25:51;4.15;;;3.10;;
74170;SDS011;62526;50.948;6.590;2023-07-24T08:28:18;5.78;;;3.20;;
74170;SDS011;62526;50.948;6.590;2023-07-24T08:30:45;4.10;;;3.15;;
74170;SDS011;62526;50.948;6.590;2023-07-24T08:33:11;6.50;;;3.17;;
74170;SDS011;62526;50.948;6.590;2023-07-24T08:35:38;4.78;;;3.10;;
74170;SDS011;62526;50.948;6.590;2023-07-24T08:38:04;4.90;;;3.70;;
74170;SDS011;62526;50.948;6.590;2023-07-24T08:40:31;5.60;;;3.70;;
74170;SDS011;62526;50.948;6.590;2023-07-24T08:42:58;6.07;;;3.22;;
74170;SDS011;62526;50.948;6.590;2023-07-24T08:45:24;8.75;;;3.75;;
74170;SDS011;62526;50.948;6.590;2023-07-24T08:47:52;9.45;;;3.20;;
74170;SDS011;62526;50.948;6.590;2023-07-24T08:50:19;5.87;;;3.08;;
74170;SDS011;62526;50.948;6.590;2023-07-24T08:52:45;4.43;;;2.90;;
74170;SDS011;62526;50.948;6.590;2023-07-24T08:55:12;4.35;;;2.90;;
74170;SDS011;62526;50.948;6.590;2023-07-24T08:57:39;5.03;;;3.03;;
74170;SDS011;62526;50.948;6.590;2023-07-24T09:00:06;4.62;;;2.80;;
74170;SDS011;62526;50.948;6.590;2023-07-24T09:02:33;5.97;;;2.72;;
74170;SDS011;62526;50.948;6.590;2023-07-24T09:05:00;3.05;;;2.67;;
74170;SDS011;62526;50.948;6.590;2023-07-24T09:07:26;4.07;;;2.95;;
74170;SDS011;62526;50.948;6.590;2023-07-24T09:09:53;5.25;;;3.10;;
74170;SDS011;62526;50.948;6.590;2023-07-24T09:12:21;4.00;;;2.28;;
74170;SDS011;62526;50.948;6.590;2023-07-24T09:14:46;3.97;;;2.97;;
74170;SDS011;62526;50.948;6.590;2023-07-24T09:17:13;5.03;;;2.78;;
74170;SDS011;62526;50.948;6.590;2023-07-24T09:19:39;4.53;;;3.00;;
74170;SDS011;62526;50.948;6.590;2023-07-24T09:22:08;3.20;;;2.60;;
74170;SDS011;62526;50.948;6.590;2023-07-24T09:24:34;4.80;;;3.33;;
74170;SDS011;62526;50.948;6.590;2023-07-24T09:27:04;3.53;;;3.00;;
74170;SDS011;62526;50.948;6.590;2023-07-24T09:29:30;5.85;;;2.92;;
74170;SDS011;62526;50.948;6.590;2023-07-24T09:31:57;5.70;;;3.08;;
74170;SDS011;62526;50.948;6.590;2023-07-24T09:34:23;5.68;;;2.87;;
74170;SDS011;62526;50.948;6.590;2023-07-24T09:36:50;6.55;;;2.50;;
74170;SDS011;62526;50.948;6.590;2023-07-24T09:39:23;3.55;;;2.72;;
74170;SDS011;62526;50.948;6.590;2023-07-24T09:41:48;2.62;;;2.20;;
74170;SDS011;62526;50.948;6.590;2023-07-24T09:44:15;10.95;;;2.85;;
74170;SDS011;62526;50.948;6.590;2023-07-24T09:46:42;4.25;;;2.78;;
74170;SDS011;62526;50.948;6.590;2023-07-24T09:49:08;4.43;;;2.50;;
74170;SDS011;62526;50.948;6.590;2023-07-24T09:51:35;3.00;;;2.50;;
74170;SDS011;62526;50.948;6.590;2023-07-24T09:54:06;3.17;;;2.30;;
74170;SDS011;62526;50.948;6.590;2023-07-24T09:56:43;4.07;;;3.05;;
74170;SDS011;62526;50.948;6.590;2023-07-24T09:59:10;4.80;;;2.72;;
74170;SDS011;62526;50.948;6.590;2023-07-24T10:01:37;5.53;;;2.45;;
74170;SDS011;62526;50.948;6.590;2023-07-24T10:04:03;8.23;;;2.58;;
74170;SDS011;62526;50.948;6.590;2023-07-24T10:06:30;4.22;;;2.50;;
74170;SDS011;62526;50.948;6.590;2023-07-24T10:08:57;3.25;;;2.45;;
74170;SDS011;62526;50.948;6.590;2023-07-24T10:11:24;3.33;;;2.47;;
74170;SDS011;62526;50.948;6.590;2023-07-24T10:13:51;2.78;;;2.28;;
74170;SDS011;62526;50.948;6.590;2023-07-24T10:16:18;2.92;;;2.45;;
74170;SDS011;62526;50.948;6.590;2023-07-24T10:18:45;2.58;;;2.20;;
74170;SDS011;62526;50.948;6.590;2023-07-24T10:21:12;3.65;;;2.30;;
74170;SDS011;62526;50.948;6.590;2023-07-24T10:23:41;3.65;;;2.35;;
74170;SDS011;62526;50.948;6.590;2023-07-24T10:26:08;3.72;;;2.12;;
74170;SDS011;62526;50.948;6.590;2023-07-24T10:28:36;3.08;;;2.47;;
74170;SDS011;62526;50.948;6.590;2023-07-24T10:31:04;8.40;;;2.53;;
74170;SDS011;62526;50.948;6.590;2023-07-24T10:33:32;3.12;;;2.40;;
74170;SDS011;62526;50.948;6.590;2023-07-24T10:36:05;2.97;;;2.33;;
74170;SDS011;62526;50.948;6.590;2023-07-24T10:38:33;3.65;;;2.35;;
74170;SDS011;62526;50.948;6.590;2023-07-24T10:41:01;4.03;;;3.08;;
74170;SDS011;62526;50.948;6.590;2023-07-24T10:43:27;3.08;;;2.58;;
74170;SDS011;62526;50.948;6.590;2023-07-24T10:45:54;2.90;;;2.37;;
74170;SDS011;62526;50.948;6.590;2023-07-24T10:48:21;6.35;;;3.05;;
74170;SDS011;62526;50.948;6.590;2023-07-24T10:50:48;4.22;;;2.50;;
74170;SDS011;62526;50.948;6.590;2023-07-24T10:53:14;3.08;;;2.47;;
74170;SDS011;62526;50.948;6.590;2023-07-24T10:55:42;3.33;;;2.58;;
74170;SDS011;62526;50.948;6.590;2023-07-24T10:58:09;4.25;;;2.58;;
74170;SDS011;62526;50.948;6.590;2023-07-24T11:00:35;3.12;;;2.47;;
74170;SDS011;62526;50.948;6.590;2023-07-24T11:03:02;4.18;;;2.60;;
74170;SDS011;62526;50.948;6.590;2023-07-24T11:05:29;3.08;;;2.60;;
74170;SDS011;62526;50.948;6.590;2023-07-24T11:07:55;5.87;;;2.62;;
74170;SDS011;62526;50.948;6.590;2023-07-24T11:10:22;5.82;;;3.00;;
74170;SDS011;62526;50.948;6.590;2023-07-24T11:12:49;4.20;;;2.45;;
74170;SDS011;62526;50.948;6.590;2023-07-24T11:15:16;6.03;;;2.92;;
74170;SDS011;62526;50.948;6.590;2023-07-24T11:17:42;12.73;;;4.72;;
74170;SDS011;62526;50.948;6.590;2023-07-24T11:20:11;7.45;;;3.92;;
74170;SDS011;62526;50.948;6.590;2023-07-24T11:22:38;10.15;;;3.58;;
74170;SDS011;62526;50.948;6.590;2023-07-24T11:25:05;12.55;;;4.28;;
74170;SDS011;62526;50.948;6.590;2023-07-24T11:27:32;7.37;;;3.10;;
74170;SDS011;62526;50.948;6.590;2023-07-24T11:29:59;4.37;;;2.20;;
74170;SDS011;62526;50.948;6.590;2023-07-24T11:32:26;3.17;;;1.55;;
74170;SDS011;62526;50.948;6.590;2023-07-24T11:34:52;5.07;;;2.20;;
74170;SDS011;62526;50.948;6.590;2023-07-24T11:37:19;4.37;;;1.62;;
74170;SDS011;62526;50.948;6.590;2023-07-24T11:42:20;1.55;;;1.45;;
74170;SDS011;62526;50.948;6.590;2023-07-24T11:44:47;2.50;;;1.98;;
74170;SDS011;62526;50.948;6.590;2023-07-24T11:47:13;4.00;;;2.70;;
74170;SDS011;62526;50.948;6.590;2023-07-24T11:49:40;7.05;;;2.65;;
74170;SDS011;62526;50.948;6.590;2023-07-24T11:52:07;3.83;;;2.78;;
74170;SDS011;62526;50.948;6.590;2023-07-24T11:54:34;3.80;;;2.53;;
74170;SDS011;62526;50.948;6.590;2023-07-24T11:57:01;5.68;;;3.28;;
74170;SDS011;62526;50.948;6.590;2023-07-24T11:59:27;4.78;;;3.40;;
74170;SDS011;62526;50.948;6.590;2023-07-24T12:01:54;5.03;;;3.40;;
74170;SDS011;62526;50.948;6.590;2023-07-24T12:04:21;4.65;;;3.33;;
74170;SDS011;62526;50.948;6.590;2023-07-24T12:06:47;5.65;;;3.20;;
74170;SDS011;62526;50.948;6.590;2023-07-24T12:09:14;4.53;;;3.00;;
74170;SDS011;62526;50.948;6.590;2023-07-24T12:11:41;4.05;;;2.97;;
74170;SDS011;62526;50.948;6.590;2023-07-24T12:14:08;3.60;;;2.67;;
74170;SDS011;62526;50.948;6.590;2023-07-24T12:16:36;4.65;;;3.22;;
74170;SDS011;62526;50.948;6.590;2023-07-24T12:19:02;4.50;;;2.97;;
74170;SDS011;62526;50.948;6.590;2023-07-24T12:21:29;4.28;;;2.35;;
74170;SDS011;62526;50.948;6.590;2023-07-24T12:23:56;1.35;;;1.20;;
74170;SDS011;62526;50.948;6.590;2023-07-24T12:26:22;1.33;;;1.23;;
74170;SDS011;62526;50.948;6.590;2023-07-24T12:28:49;1.42;;;1.33;;
74170;SDS011;62526;50.948;6.590;2023-07-24T12:31:15;1.52;;;1.37;;
74170;SDS011;62526;50.948;6.590;2023-07-24T12:33:42;1.40;;;1.30;;
74170;SDS011;62526;50.948;6.590;2023-07-24T12:36:09;1.30;;;1.20;;
74170;SDS011;62526;50.948;6.590;2023-07-24T12:38:36;1.62;;;1.30;;
74170;SDS011;62526;50.948;6.590;2023-07-24T12:41:02;1.45;;;1.33;;
74170;SDS011;62526;50.948;6.590;2023-07-24T12:43:29;1.40;;;1.30;;
74170;SDS011;62526;50.948;6.590;2023-07-24T12:45:55;3.65;;;1.40;;
74170;SDS011;62526;50.948;6.590;2023-07-24T12:48:22;2.20;;;1.50;;
74170;SDS011;62526;50.948;6.590;2023-07-24T12:50:49;3.33;;;1.27;;
74170;SDS011;62526;50.948;6.590;2023-07-24T12:53:15;2.35;;;1.37;;
74170;SDS011;62526;50.948;6.590;2023-07-24T12:55:42;1.30;;;1.20;;
74170;SDS011;62526;50.948;6.590;2023-07-24T12:58:09;1.00;;;1.00;;
74170;SDS011;62526;50.948;6.590;2023-07-24T13:00:35;1.30;;;1.20;;
74170;SDS011;62526;50.948;6.590;2023-07-24T13:03:02;1.25;;;1.10;;
74170;SDS011;62526;50.948;6.590;2023-07-24T13:05:28;1.00;;;1.00;;
74170;SDS011;62526;50.948;6.590;2023-07-24T13:07:55;1.40;;;1.30;;
74170;SDS011;62526;50.948;6.590;2023-07-24T13:10:22;1.77;;;1.40;;
74170;SDS011;62526;50.948;6.590;2023-07-24T13:12:48;0.98;;;0.98;;
74170;SDS011;62526;50.948;6.590;2023-07-24T13:15:15;1.50;;;1.40;;
74170;SDS011;62526;50.948;6.590;2023-07-24T13:17:42;3.62;;;1.35;;
74170;SDS011;62526;50.948;6.590;2023-07-24T13:20:09;1.67;;;1.40;;
74170;SDS011;62526;50.948;6.590;2023-07-24T13:22:36;3.65;;;1.40;;
74170;SDS011;62526;50.948;6.590;2023-07-24T13:25:03;2.47;;;1.10;;
74170;SDS011;62526;50.948;6.590;2023-07-24T13:27:29;1.30;;;1.20;;
74170;SDS011;62526;50.948;6.590;2023-07-24T13:29:56;1.40;;;1.30;;
74170;SDS011;62526;50.948;6.590;2023-07-24T13:32:23;1.40;;;1.30;;
74170;SDS011;62526;50.948;6.590;2023-07-24T13:34:50;1.62;;;1.40;;
74170;SDS011;62526;50.948;6.590;2023-07-24T13:37:17;2.75;;;1.60;;
74170;SDS011;62526;50.948;6.590;2023-07-24T13:39:43;1.75;;;1.37;;
74170;SDS011;62526;50.948;6.590;2023-07-24T13:42:10;1.35;;;1.20;;
74170;SDS011;62526;50.948;6.590;2023-07-24T13:44:37;1.40;;;1.30;;
74170;SDS011;62526;50.948;6.590;2023-07-24T13:47:04;1.65;;;1.27;;
74170;SDS011;62526;50.948;6.590;2023-07-24T13:49:31;1.35;;;1.25;;
74170;SDS011;62526;50.948;6.590;2023-07-24T13:51:58;2.00;;;1.50;;
74170;SDS011;62526;50.948;6.590;2023-07-24T13:54:24;1.55;;;1.40;;
74170;SDS011;62526;50.948;6.590;2023-07-24T13:56:52;1.77;;;1.50;;
74170;SDS011;62526;50.948;6.590;2023-07-24T13:59:32;1.15;;;1.10;;
74170;SDS011;62526;50.948;6.590;2023-07-24T14:01:58;1.37;;;1.27;;
74170;SDS011;62526;50.948;6.590;2023-07-24T14:04:25;1.42;;;1.33;;
74170;SDS011;62526;50.948;6.590;2023-07-24T14:06:52;1.92;;;1.67;;
74170;SDS011;62526;50.948;6.590;2023-07-24T14:09:18;1.77;;;1.67;;
74170;SDS011;62526;50.948;6.590;2023-07-24T14:11:45;6.43;;;1.80;;
74170;SDS011;62526;50.948;6.590;2023-07-24T14:14:12;2.85;;;1.80;;
74170;SDS011;62526;50.948;6.590;2023-07-24T14:16:39;2.58;;;1.60;;
74170;SDS011;62526;50.948;6.590;2023-07-24T14:19:05;1.40;;;1.30;;
74170;SDS011;62526;50.948;6.590;2023-07-24T14:21:32;1.50;;;1.40;;
74170;SDS011;62526;50.948;6.590;2023-07-24T14:24:00;1.20;;;1.10;;
74170;SDS011;62526;50.948;6.590;2023-07-24T14:26:26;2.05;;;1.55;;
74170;SDS011;62526;50.948;6.590;2023-07-24T14:28:53;4.45;;;1.27;;
74170;SDS011;62526;50.948;6.590;2023-07-24T14:31:21;3.37;;;1.60;;
74170;SDS011;62526;50.948;6.590;2023-07-24T14:33:50;1.70;;;1.60;;
74170;SDS011;62526;50.948;6.590;2023-07-24T14:36:18;1.70;;;1.60;;
74170;SDS011;62526;50.948;6.590;2023-07-24T14:38:45;3.03;;;1.67;;
74170;SDS011;62526;50.948;6.590;2023-07-24T14:41:11;1.30;;;1.20;;
74170;SDS011;62526;50.948;6.590;2023-07-24T14:43:40;1.87;;;1.77;;
74170;SDS011;62526;50.948;6.590;2023-07-24T14:46:06;1.50;;;1.40;;
74170;SDS011;62526;50.948;6.590;2023-07-24T14:48:33;1.62;;;1.52;;